createdAt,value
2023-01-06T00:01:26.811Z,94914.03
2023-01-06T00:03:58.349Z,94912.91
2023-01-06T00:06:28.519Z,94919.88
2023-01-06T00:08:56.859Z,94919.34
2023-01-06T00:11:25.564Z,94926.94
2023-01-06T00:13:53.620Z,94932.44
2023-01-06T00:16:23.245Z,94930.78
2023-01-06T00:18:55.018Z,94936.88
2023-01-06T00:21:23.085Z,94941.25
2023-01-06T00:23:50.987Z,94957.28
2023-01-06T00:26:19.066Z,94956.84
2023-01-06T00:28:47.101Z,94964.31
2023-01-06T00:31:17.228Z,94968.97
2023-01-06T00:33:46.608Z,94969.94
2023-01-06T00:36:15.620Z,94964.22
2023-01-06T00:38:43.706Z,94954.81
2023-01-06T00:41:27.757Z,94958.91
2023-01-06T00:43:56.358Z,94948.94
2023-01-06T00:46:26.889Z,94955.88
2023-01-06T00:49:04.524Z,94961.88
2023-01-06T00:51:33.655Z,94973.03
2023-01-06T00:54:02.070Z,94970.84
2023-01-06T00:56:29.951Z,94969.06
2023-01-06T00:58:57.841Z,94963.16
2023-01-06T01:01:25.839Z,94971.16
2023-01-06T01:03:53.774Z,94965.00
2023-01-06T01:06:23.029Z,94966.06
2023-01-06T01:08:54.970Z,94962.38
2023-01-06T01:11:40.826Z,94957.94
2023-01-06T01:14:08.917Z,94973.19
2023-01-06T01:16:39.270Z,94963.19
2023-01-06T01:19:07.300Z,94973.25
2023-01-06T01:21:36.722Z,94967.44
2023-01-06T01:24:06.987Z,94968.75
2023-01-06T01:26:35.044Z,94955.81
2023-01-06T01:29:02.983Z,94972.28
2023-01-06T01:31:30.972Z,94960.16
2023-01-06T01:33:59.262Z,94970.06
2023-01-06T01:36:27.269Z,94974.44
2023-01-06T01:38:58.588Z,94973.34
2023-01-06T01:41:28.510Z,94951.94
2023-01-06T01:43:59.440Z,94961.63
2023-01-06T01:46:32.275Z,94932.66
2023-01-06T01:49:03.368Z,94934.13
2023-01-06T01:51:34.572Z,94916.97
2023-01-06T01:54:08.983Z,94922.44
2023-01-06T01:56:43.157Z,94903.72
2023-01-06T01:59:14.889Z,94906.03
2023-01-06T02:01:43.390Z,94908.25
2023-01-06T02:04:11.791Z,94909.72
2023-01-06T02:06:41.638Z,94924.28
2023-01-06T02:09:27.331Z,94924.00
2023-01-06T02:11:57.517Z,94926.84
2023-01-06T02:14:27.538Z,94953.59
2023-01-06T02:17:06.914Z,94957.44
2023-01-06T02:20:07.204Z,94941.66
2023-01-06T02:23:13.746Z,94977.78
2023-01-06T02:26:05.274Z,94943.44
2023-01-06T02:29:02.535Z,94961.13
2023-01-06T02:31:58.410Z,94970.38
2023-01-06T02:34:41.871Z,94963.25
2023-01-06T02:37:23.013Z,94961.78
2023-01-06T02:40:04.227Z,94964.53
2023-01-06T02:42:43.521Z,94969.84
2023-01-06T02:45:21.376Z,94947.78
2023-01-06T02:48:00.551Z,94938.78
2023-01-06T02:50:40.088Z,94950.38
2023-01-06T02:53:15.340Z,94939.06
2023-01-06T02:55:46.912Z,94940.56
2023-01-06T02:58:27.820Z,94930.50
2023-01-06T03:01:00.373Z,94950.63
2023-01-06T03:03:34.789Z,94947.22
2023-01-06T03:06:07.388Z,94940.28
2023-01-06T03:08:37.362Z,94920.38
2023-01-06T03:11:05.815Z,94937.69
2023-01-06T03:13:40.735Z,94926.38
2023-01-06T03:16:09.627Z,94945.59
2023-01-06T03:18:41.325Z,94909.47
2023-01-06T03:21:14.676Z,94940.84
2023-01-06T03:23:43.978Z,94937.75
2023-01-06T03:26:12.389Z,94940.66
2023-01-06T03:28:40.384Z,94932.72
2023-01-06T03:31:15.879Z,94930.19
2023-01-06T03:33:56.573Z,94931.03
2023-01-06T03:36:31.407Z,94930.63
2023-01-06T03:39:09.202Z,94925.34
2023-01-06T03:41:58.606Z,94940.03
2023-01-06T03:44:35.887Z,94931.75
2023-01-06T03:47:09.012Z,94918.31
2023-01-06T03:49:46.195Z,94956.59
2023-01-06T03:52:23.185Z,94929.75
2023-01-06T03:54:58.608Z,94963.91
2023-01-06T03:57:30.340Z,94955.63
2023-01-06T04:00:02.686Z,94972.66
2023-01-06T04:02:30.734Z,94976.19
2023-01-06T04:05:10.965Z,94967.09
2023-01-06T04:07:39.804Z,94981.50
2023-01-06T04:10:08.951Z,94975.50
2023-01-06T04:12:39.047Z,94994.72
2023-01-06T04:15:09.359Z,94990.66
2023-01-06T04:17:37.988Z,94993.94
2023-01-06T04:20:09.326Z,94985.63
2023-01-06T04:22:37.443Z,94974.97
2023-01-06T04:25:06.926Z,94963.16
2023-01-06T04:27:34.779Z,94963.59
2023-01-06T04:30:02.686Z,94980.59
2023-01-06T04:32:30.573Z,94996.41
2023-01-06T04:34:58.597Z,95011.94
2023-01-06T04:37:27.887Z,95009.63
2023-01-06T04:39:55.819Z,95014.97
2023-01-06T04:42:23.820Z,95017.41
2023-01-06T04:44:51.704Z,95025.16
2023-01-06T04:47:19.771Z,95032.09
2023-01-06T04:49:47.640Z,95024.06
2023-01-06T04:52:16.941Z,95016.44
2023-01-06T04:54:46.223Z,95047.34
2023-01-06T04:57:14.115Z,95034.25
2023-01-06T04:59:42.009Z,95045.56
2023-01-06T05:02:09.953Z,95061.22
2023-01-06T05:04:47.325Z,95048.44
2023-01-06T05:07:15.807Z,95050.72
2023-01-06T05:09:43.808Z,95051.69
2023-01-06T05:12:13.077Z,95039.28
2023-01-06T05:14:40.992Z,95046.50
2023-01-06T05:17:08.945Z,95030.59
2023-01-06T05:19:36.894Z,95044.06
2023-01-06T05:22:04.891Z,95061.66
2023-01-06T05:24:33.007Z,95040.75
2023-01-06T05:27:01.000Z,95067.91
2023-01-06T05:29:30.307Z,95071.59
2023-01-06T05:31:58.369Z,95061.25
2023-01-06T05:34:26.790Z,95059.53
2023-01-06T05:36:54.819Z,95066.59
2023-01-06T05:39:22.735Z,95069.19
2023-01-06T05:41:50.662Z,95085.53
2023-01-06T05:44:20.740Z,95065.25
2023-01-06T05:46:50.234Z,95074.38
2023-01-06T05:49:18.183Z,95093.44
2023-01-06T05:51:46.048Z,95085.53
2023-01-06T05:54:15.366Z,95077.94
2023-01-06T05:56:43.401Z,95084.72
2023-01-06T05:59:11.423Z,95074.38
2023-01-06T06:01:39.525Z,95081.16
2023-01-06T06:04:09.003Z,95081.16
2023-01-06T06:06:37.038Z,95089.06
2023-01-06T06:09:06.478Z,95079.28
2023-01-06T06:11:34.355Z,95078.44
2023-01-06T06:14:02.284Z,95079.84
2023-01-06T06:16:30.227Z,95086.09
2023-01-06T06:19:00.064Z,95096.69
2023-01-06T06:21:30.823Z,95091.97
2023-01-06T06:23:59.977Z,95098.31
2023-01-06T06:26:28.164Z,95094.88
2023-01-06T06:28:56.201Z,95094.66
2023-01-06T06:31:25.883Z,95122.69
2023-01-06T06:33:55.658Z,95111.78
2023-01-06T06:36:24.763Z,95109.19
2023-01-06T06:38:55.957Z,95103.72
2023-01-06T06:41:25.319Z,95114.75
2023-01-06T06:43:53.627Z,95116.50
2023-01-06T06:46:22.434Z,95111.88
2023-01-06T06:48:50.992Z,95108.34
2023-01-06T06:51:20.967Z,95137.47
2023-01-06T06:53:49.392Z,95122.34
2023-01-06T06:56:20.334Z,95120.81
2023-01-06T06:58:48.398Z,95122.13
2023-01-06T07:01:18.249Z,95129.63
2023-01-06T07:03:46.695Z,95140.38
2023-01-06T07:06:18.208Z,95138.19
2023-01-06T07:08:47.238Z,95129.47
2023-01-06T07:11:15.276Z,95132.69
2023-01-06T07:13:45.005Z,95141.16
2023-01-06T07:16:13.489Z,95132.69
2023-01-06T07:18:41.699Z,95141.16
2023-01-06T07:21:09.706Z,95142.25
2023-01-06T07:23:37.673Z,95135.16
2023-01-06T07:26:06.149Z,95146.56
2023-01-06T07:28:34.637Z,95178.47
2023-01-06T07:31:04.166Z,95149.97
2023-01-06T07:33:32.056Z,95148.34
2023-01-06T07:36:00.030Z,95159.38
2023-01-06T07:38:28.352Z,95175.50
2023-01-06T07:41:01.465Z,95159.13
2023-01-06T07:43:29.846Z,95159.97
2023-01-06T07:45:57.785Z,95146.06
2023-01-06T07:48:27.152Z,95181.31
2023-01-06T07:50:55.108Z,95170.69
2023-01-06T07:53:23.398Z,95165.13
2023-01-06T07:55:54.733Z,95184.22
2023-01-06T07:58:24.329Z,95170.41
2023-01-06T08:00:52.386Z,95183.72
2023-01-06T08:03:20.446Z,95210.34
2023-01-06T08:05:49.925Z,95176.41
2023-01-06T08:08:17.879Z,95183.19
2023-01-06T08:10:45.904Z,95169.69
2023-01-06T08:13:13.838Z,95184.56
2023-01-06T08:15:41.796Z,95185.38
2023-01-06T08:18:10.020Z,95181.97
2023-01-06T08:20:37.979Z,95185.53
2023-01-06T08:23:07.318Z,95205.66
2023-01-06T08:25:35.477Z,95198.84
2023-01-06T08:28:03.430Z,95205.66
2023-01-06T08:30:31.744Z,95191.84
2023-01-06T08:33:00.446Z,95195.22
2023-01-06T08:35:28.651Z,95207.22
2023-01-06T08:37:56.866Z,95206.00
2023-01-06T08:40:26.255Z,95189.56
2023-01-06T08:42:54.231Z,95223.09
2023-01-06T08:45:22.234Z,95208.66
2023-01-06T08:47:50.131Z,95200.72
2023-01-06T08:50:18.222Z,95204.50
2023-01-06T08:52:46.396Z,95212.97
2023-01-06T08:55:14.320Z,95198.63
2023-01-06T08:57:43.655Z,95189.34
2023-01-06T09:00:12.928Z,95186.75
2023-01-06T09:02:40.900Z,95206.91
2023-01-06T09:05:09.845Z,95176.66
2023-01-06T09:07:38.000Z,95190.63
2023-01-06T09:10:06.705Z,95195.44
2023-01-06T09:12:34.920Z,95187.78
2023-01-06T09:15:04.563Z,95162.38
2023-01-06T09:17:32.571Z,95158.00
2023-01-06T09:20:00.521Z,95185.47
2023-01-06T09:22:28.503Z,95169.06
2023-01-06T09:24:56.630Z,95163.22
2023-01-06T09:27:24.928Z,95173.88
2023-01-06T09:29:53.113Z,95200.41
2023-01-06T09:32:22.475Z,95178.97
2023-01-06T09:34:50.576Z,95159.66
2023-01-06T09:37:18.689Z,95176.94
2023-01-06T09:39:46.808Z,95181.63
2023-01-06T09:42:29.694Z,95176.44
2023-01-06T09:44:59.726Z,95146.06
2023-01-06T09:47:33.346Z,95148.31
2023-01-06T09:50:08.718Z,95162.56
2023-01-06T09:52:41.790Z,95123.25
2023-01-06T09:55:18.568Z,95137.41
2023-01-06T09:57:50.733Z,95140.78
2023-01-06T10:00:30.901Z,95143.75
2023-01-06T10:03:00.289Z,95146.47
2023-01-06T10:05:33.377Z,95132.19
2023-01-06T10:08:06.349Z,95142.75
2023-01-06T10:10:43.773Z,95127.66
2023-01-06T10:13:26.487Z,95135.50
2023-01-06T10:16:08.158Z,95138.88
2023-01-06T10:18:49.334Z,95121.38
2023-01-06T10:21:28.911Z,95119.41
2023-01-06T10:24:32.392Z,95145.22
2023-01-06T10:27:21.680Z,95114.16
2023-01-06T10:29:52.414Z,95119.19
2023-01-06T10:32:20.412Z,95093.22
2023-01-06T10:34:51.760Z,95098.94
2023-01-06T10:37:24.820Z,95082.81
2023-01-06T10:40:02.033Z,95110.31
2023-01-06T10:42:57.663Z,95100.41
2023-01-06T10:45:28.912Z,95095.75
2023-01-06T10:47:57.720Z,95091.81
2023-01-06T10:50:27.790Z,95079.28
2023-01-06T10:52:55.958Z,95086.78
2023-01-06T10:55:35.258Z,95105.69
2023-01-06T10:58:12.952Z,95080.88
2023-01-06T11:00:56.493Z,95080.38
2023-01-06T11:03:33.308Z,95069.88
2023-01-06T11:06:07.850Z,95057.84
2023-01-06T11:08:37.307Z,95064.31
2023-01-06T11:11:26.757Z,95061.63
2023-01-06T11:13:57.865Z,95077.31
2023-01-06T11:16:28.690Z,95088.31
2023-01-06T11:18:59.312Z,95071.03
2023-01-06T11:21:39.983Z,95067.72
2023-01-06T11:24:18.184Z,95054.06
2023-01-06T11:26:51.180Z,95086.06
2023-01-06T11:29:20.790Z,95051.59
2023-01-06T11:31:50.012Z,95072.44
2023-01-06T11:34:23.723Z,95045.72
2023-01-06T11:36:54.566Z,95052.69
2023-01-06T11:39:28.436Z,95060.03
2023-01-06T11:41:58.283Z,95055.81
2023-01-06T11:44:32.739Z,95051.78
2023-01-06T11:47:03.690Z,95070.50
2023-01-06T11:49:36.055Z,95059.34
2023-01-06T11:52:07.457Z,95056.03
2023-01-06T11:54:38.655Z,95060.16
2023-01-06T11:57:28.150Z,95057.88
2023-01-06T12:00:13.185Z,95054.28
2023-01-06T12:02:53.096Z,95057.97
2023-01-06T12:05:30.116Z,95062.63
2023-01-06T12:07:59.791Z,95064.13
2023-01-06T12:10:33.689Z,95099.09
2023-01-06T12:13:01.704Z,95083.19
2023-01-06T12:15:32.834Z,95088.56
2023-01-06T12:18:04.974Z,95093.09
2023-01-06T12:20:36.372Z,95090.16
2023-01-06T12:23:08.867Z,95073.94
2023-01-06T12:25:42.510Z,95074.59
2023-01-06T12:28:17.115Z,95101.31
2023-01-06T12:30:52.013Z,95094.50
2023-01-06T12:33:27.944Z,95090.44
2023-01-06T12:36:00.685Z,95094.94
2023-01-06T12:38:42.269Z,95101.38
2023-01-06T12:41:15.728Z,95121.97
2023-01-06T12:43:51.171Z,95116.03
2023-01-06T12:46:24.863Z,95106.53
2023-01-06T12:48:58.235Z,95108.28
2023-01-06T12:51:31.864Z,95116.72
2023-01-06T12:54:08.094Z,95148.63
2023-01-06T12:56:52.079Z,95109.84
2023-01-06T12:59:31.124Z,95103.41
2023-01-06T13:02:14.388Z,95109.22
2023-01-06T13:05:05.077Z,95142.06
2023-01-06T13:07:42.840Z,95103.66
2023-01-06T13:10:26.433Z,95113.47
2023-01-06T13:13:23.597Z,95111.03
2023-01-06T13:15:54.528Z,95112.13
2023-01-06T13:18:31.190Z,95128.78
2023-01-06T13:21:04.495Z,95137.97
2023-01-06T13:23:49.469Z,95128.31
2023-01-06T13:26:42.953Z,95132.47
2023-01-06T13:29:21.653Z,95133.53
2023-01-06T13:32:18.795Z,95129.91
2023-01-06T13:35:27.864Z,95136.44
2023-01-06T13:38:07.766Z,95137.56
2023-01-06T13:40:39.647Z,95146.91
2023-01-06T13:43:19.706Z,95138.78
2023-01-06T13:45:52.155Z,95150.53
2023-01-06T13:48:26.219Z,95146.34
2023-01-06T13:50:54.294Z,95156.56
2023-01-06T13:53:24.771Z,95155.31
2023-01-06T13:56:26.800Z,95168.22
2023-01-06T13:59:20.034Z,95174.88
2023-01-06T14:01:48.640Z,95157.81
2023-01-06T14:04:52.503Z,95159.09
2023-01-06T14:07:34.631Z,95155.91
2023-01-06T14:10:03.961Z,95161.84
2023-01-06T14:12:35.675Z,95166.22
2023-01-06T14:15:07.671Z,95164.88
2023-01-06T14:17:41.874Z,95169.91
2023-01-06T14:20:26.494Z,95169.25
2023-01-06T14:23:03.295Z,95162.50
2023-01-06T14:25:41.100Z,95191.84
2023-01-06T14:28:24.967Z,95161.75
2023-01-06T14:31:47.484Z,95174.72
2023-01-06T14:34:20.672Z,95172.84
2023-01-06T14:36:52.563Z,95170.25
2023-01-06T14:39:26.022Z,95166.88
2023-01-06T14:42:02.833Z,95169.31
2023-01-06T14:44:38.304Z,95166.72
2023-01-06T14:47:13.274Z,95171.69
2023-01-06T14:49:49.257Z,95168.78
2023-01-06T14:52:20.704Z,95178.63
2023-01-06T14:54:51.787Z,95177.97
2023-01-06T14:57:27.684Z,95176.75
2023-01-06T15:00:15.615Z,95158.25
2023-01-06T15:02:51.278Z,95166.97
2023-01-06T15:05:22.447Z,95172.19
2023-01-06T15:07:58.007Z,95177.91
2023-01-06T15:10:27.154Z,95167.28
2023-01-06T15:12:57.545Z,95172.38
2023-01-06T15:15:28.423Z,95162.44
2023-01-06T15:18:00.240Z,95175.13
2023-01-06T15:20:31.012Z,95174.06
2023-01-06T15:22:59.882Z,95172.13
2023-01-06T15:25:29.515Z,95179.50
2023-01-06T15:27:57.881Z,95216.84
2023-01-06T15:30:28.100Z,95196.75
2023-01-06T15:32:58.169Z,95181.47
2023-01-06T15:35:29.211Z,95176.72
2023-01-06T15:38:02.252Z,95194.97
2023-01-06T15:40:30.812Z,95191.81
2023-01-06T15:42:59.397Z,95194.81
2023-01-06T15:45:31.985Z,95188.31
2023-01-06T15:48:04.051Z,95203.84
2023-01-06T15:50:34.790Z,95210.50
2023-01-06T15:53:05.837Z,95201.94
2023-01-06T15:55:36.202Z,95197.31
2023-01-06T15:58:07.982Z,95201.81
2023-01-06T16:00:42.704Z,95208.22
2023-01-06T16:03:20.255Z,95210.03
2023-01-06T16:06:00.069Z,95219.84
2023-01-06T16:08:29.941Z,95247.75
2023-01-06T16:11:12.472Z,95228.25
2023-01-06T16:13:41.301Z,95229.09
2023-01-06T16:16:26.630Z,95204.56
2023-01-06T16:18:56.700Z,95204.59
2023-01-06T16:21:27.481Z,95204.84
2023-01-06T16:23:57.795Z,95217.09
2023-01-06T16:26:28.319Z,95220.78
2023-01-06T16:28:57.987Z,95217.94
2023-01-06T16:31:32.063Z,95220.00
2023-01-06T16:34:25.458Z,95225.56
2023-01-06T16:36:57.458Z,95214.56
2023-01-06T16:39:26.416Z,95222.44
2023-01-06T16:42:41.472Z,95224.47
2023-01-06T16:45:29.240Z,95213.06
2023-01-06T16:47:57.967Z,95214.56
2023-01-06T16:50:30.114Z,95219.03
2023-01-06T16:53:04.643Z,95230.91
2023-01-06T16:55:32.814Z,95230.63
2023-01-06T16:58:02.232Z,95228.84
2023-01-06T17:00:31.707Z,95236.22
2023-01-06T17:02:59.868Z,95230.78
2023-01-06T17:05:30.590Z,95237.44
2023-01-06T17:08:01.501Z,95235.81
2023-01-06T17:10:30.585Z,95219.75
2023-01-06T17:13:19.310Z,95234.56
2023-01-06T17:15:51.229Z,95246.56
2023-01-06T17:18:25.095Z,95242.06
2023-01-06T17:20:59.329Z,95230.63
2023-01-06T17:23:27.612Z,95247.00
2023-01-06T17:26:03.216Z,95240.72
2023-01-06T17:28:33.275Z,95238.25
2023-01-06T17:31:01.977Z,95241.25
2023-01-06T17:33:31.034Z,95241.94
2023-01-06T17:36:02.941Z,95239.88
2023-01-06T17:38:31.547Z,95245.34
2023-01-06T17:40:59.601Z,95249.97
2023-01-06T17:43:30.761Z,95250.53
2023-01-06T17:45:59.411Z,95241.25
2023-01-06T17:48:27.923Z,95241.25
2023-01-06T17:50:57.090Z,95256.38
2023-01-06T17:53:48.205Z,95245.34
2023-01-06T17:56:16.627Z,95265.47
2023-01-06T17:58:46.428Z,95264.94
2023-01-06T18:01:20.656Z,95264.53
2023-01-06T18:03:49.743Z,95264.94
2023-01-06T18:06:27.920Z,95268.19
2023-01-06T18:09:08.534Z,95270.94
2023-01-06T18:11:38.972Z,95250.78
2023-01-06T18:14:19.333Z,95265.59
2023-01-06T18:16:48.570Z,95248.88
2023-01-06T18:19:25.598Z,95254.72
2023-01-06T18:21:54.729Z,95254.06
2023-01-06T18:24:30.715Z,95254.88
2023-01-06T18:27:00.151Z,95266.00
2023-01-06T18:29:32.467Z,95251.19
2023-01-06T18:32:27.539Z,95254.56
2023-01-06T18:34:57.261Z,95252.94
2023-01-06T18:37:27.470Z,95266.16
2023-01-06T18:40:01.457Z,95263.69
2023-01-06T18:42:34.029Z,95250.47
2023-01-06T18:45:22.291Z,95267.91
2023-01-06T18:47:56.700Z,95249.41
2023-01-06T18:50:31.039Z,95260.69
2023-01-06T18:53:00.581Z,95261.53
2023-01-06T18:55:37.337Z,95260.97
2023-01-06T18:58:17.238Z,95248.06
2023-01-06T19:00:48.296Z,95257.88
2023-01-06T19:03:36.952Z,95259.47
2023-01-06T19:06:30.961Z,95255.94
2023-01-06T19:08:58.979Z,95262.63
2023-01-06T19:11:30.230Z,95271.03
2023-01-06T19:14:01.535Z,95272.81
2023-01-06T19:16:36.961Z,95278.56
2023-01-06T19:19:27.163Z,95291.88
2023-01-06T19:22:09.348Z,95267.91
2023-01-06T19:24:44.438Z,95281.13
2023-01-06T19:27:35.812Z,95281.50
2023-01-06T19:30:41.269Z,95288.72
2023-01-06T19:33:34.812Z,95287.38
2023-01-06T19:36:25.318Z,95291.84
2023-01-06T19:38:53.512Z,95297.28
2023-01-06T19:41:26.852Z,95291.00
2023-01-06T19:44:02.921Z,95284.47
2023-01-06T19:46:37.774Z,95296.88
2023-01-06T19:49:14.506Z,95291.56
2023-01-06T19:51:42.514Z,95280.91
2023-01-06T19:54:22.600Z,95290.59
2023-01-06T19:56:52.444Z,95293.88
2023-01-06T19:59:25.889Z,95282.28
2023-01-06T20:02:04.167Z,95293.16
2023-01-06T20:04:32.803Z,95293.72
2023-01-06T20:07:02.659Z,95286.88
2023-01-06T20:09:33.703Z,95290.44
2023-01-06T20:12:02.152Z,95293.69
2023-01-06T20:14:31.542Z,95292.47
2023-01-06T20:17:00.732Z,95296.28
2023-01-06T20:19:28.965Z,95283.63
2023-01-06T20:21:57.012Z,95285.28
2023-01-06T20:24:26.212Z,95293.81
2023-01-06T20:26:54.207Z,95296.78
2023-01-06T20:29:22.098Z,95290.69
2023-01-06T20:31:51.487Z,95296.66
2023-01-06T20:34:19.519Z,95293.22
2023-01-06T20:36:47.555Z,95298.38
2023-01-06T20:39:15.470Z,95294.31
2023-01-06T20:41:43.430Z,95295.00
2023-01-06T20:44:13.229Z,95302.75
2023-01-06T20:46:41.226Z,95305.19
2023-01-06T20:49:11.882Z,95292.28
2023-01-06T20:51:39.848Z,95297.31
2023-01-06T20:54:07.888Z,95300.16
2023-01-06T20:56:35.859Z,95306.97
2023-01-06T20:59:03.911Z,95298.53
2023-01-06T21:01:31.965Z,95300.03
2023-01-06T21:04:00.517Z,95295.69
2023-01-06T21:06:29.872Z,95286.97
2023-01-06T21:08:57.865Z,95299.47
2023-01-06T21:11:25.809Z,95297.16
2023-01-06T21:13:53.732Z,95299.31
2023-01-06T21:16:22.792Z,95291.84
2023-01-06T21:18:51.484Z,95285.72
2023-01-06T21:21:19.529Z,95293.44
2023-01-06T21:23:48.860Z,95290.88
2023-01-06T21:26:16.887Z,95299.47
2023-01-06T21:28:44.909Z,95297.69
2023-01-06T21:31:12.870Z,95305.56
2023-01-06T21:33:40.879Z,95300.63
2023-01-06T21:36:09.681Z,95309.88
2023-01-06T21:38:37.765Z,95297.38
2023-01-06T21:41:21.039Z,95299.84
2023-01-06T21:43:48.962Z,95293.97
2023-01-06T21:46:17.408Z,95311.81
2023-01-06T21:48:45.873Z,95297.91
2023-01-06T21:51:14.006Z,95308.66
2023-01-06T21:53:42.224Z,95306.59
2023-01-06T21:56:11.619Z,95310.94
2023-01-06T21:58:39.615Z,95305.06
2023-01-06T22:01:07.677Z,95303.84
2023-01-06T22:03:35.945Z,95298.53
2023-01-06T22:06:04.619Z,95305.84
2023-01-06T22:08:33.842Z,95294.97
2023-01-06T22:11:02.738Z,95306.66
2023-01-06T22:13:33.975Z,95297.28
2023-01-06T22:16:02.096Z,95287.22
2023-01-06T22:18:30.149Z,95287.34
2023-01-06T22:20:59.182Z,95291.81
2023-01-06T22:23:27.332Z,95289.09
2023-01-06T22:25:55.217Z,95296.97
2023-01-06T22:28:23.418Z,95283.69
2023-01-06T22:30:54.875Z,95279.84
2023-01-06T22:33:22.892Z,95284.78
2023-01-06T22:35:51.250Z,95286.53
2023-01-06T22:38:19.248Z,95284.72
2023-01-06T22:40:47.993Z,95292.50
2023-01-06T22:43:16.016Z,95293.19
2023-01-06T22:45:44.013Z,95292.56
2023-01-06T22:48:13.263Z,95272.94
2023-01-06T22:50:41.412Z,95298.00
2023-01-06T22:53:09.654Z,95287.91
2023-01-06T22:55:37.626Z,95294.88
2023-01-06T22:58:05.688Z,95297.72
2023-01-06T23:00:33.744Z,95303.81
2023-01-06T23:03:04.331Z,95301.28
2023-01-06T23:05:34.096Z,95298.59
2023-01-06T23:08:01.965Z,95282.91
2023-01-06T23:10:29.869Z,95285.47
2023-01-06T23:12:57.806Z,95283.38
2023-01-06T23:15:27.479Z,95284.66
2023-01-06T23:17:55.403Z,95281.00
2023-01-06T23:20:23.381Z,95272.47
2023-01-06T23:22:52.643Z,95273.97
2023-01-06T23:25:20.580Z,95268.56
2023-01-06T23:27:48.481Z,95268.09
2023-01-06T23:30:16.582Z,95260.00
2023-01-06T23:32:44.478Z,95259.41
2023-01-06T23:35:12.350Z,95256.47
2023-01-06T23:37:40.311Z,95254.47
2023-01-06T23:40:11.064Z,95266.03
2023-01-06T23:42:47.989Z,95260.97
2023-01-06T23:45:16.733Z,95269.72
2023-01-06T23:47:44.713Z,95272.16
2023-01-06T23:50:12.604Z,95261.41
2023-01-06T23:52:40.469Z,95271.81
2023-01-06T23:55:10.292Z,95267.59
2023-01-06T23:57:38.215Z,95273.28
